sensor_id;sensor_type;location;lat;lon;timestamp;pressure;altitude;pressure_sealevel;temperature;humidity
57056;BME280;42945;51.718;5.324;2023-04-26T00:02:21;101655.13;;;0.23;100.00
57056;BME280;42945;51.718;5.324;2023-04-26T00:04:50;101751.59;;;0.78;100.00
57056;BME280;42945;51.718;5.324;2023-04-26T00:07:20;101765.47;;;0.95;100.00
57056;BME280;42945;51.718;5.324;2023-04-26T00:09:46;101753.28;;;0.90;100.00
57056;BME280;42945;51.718;5.324;2023-04-26T00:12:12;101742.00;;;0.80;100.00
57056;BME280;42945;51.718;5.324;2023-04-26T00:14:37;101633.44;;;0.02;100.00
57056;BME280;42945;51.718;5.324;2023-04-26T00:17:03;101743.75;;;0.66;100.00
57056;BME280;42945;51.718;5.324;2023-04-26T00:19:28;101716.78;;;0.65;100.00
57056;BME280;42945;51.718;5.324;2023-04-26T00:21:53;101571.78;;;-0.57;100.00
57056;BME280;42945;51.718;5.324;2023-04-26T00:24:19;101629.03;;;0.13;100.00
57056;BME280;42945;51.718;5.324;2023-04-26T00:26:45;101728.94;;;0.80;100.00
57056;BME280;42945;51.718;5.324;2023-04-26T00:29:10;101674.28;;;0.12;100.00
57056;BME280;42945;51.718;5.324;2023-04-26T00:31:35;101755.09;;;0.60;100.00
57056;BME280;42945;51.718;5.324;2023-04-26T00:34:01;101644.72;;;0.01;100.00
57056;BME280;42945;51.718;5.324;2023-04-26T00:36:26;101765.53;;;0.71;100.00
57056;BME280;42945;51.718;5.324;2023-04-26T00:38:51;101732.47;;;0.68;100.00
57056;BME280;42945;51.718;5.324;2023-04-26T00:41:17;101632.59;;;-0.15;100.00
57056;BME280;42945;51.718;5.324;2023-04-26T00:43:42;101757.72;;;0.58;100.00
57056;BME280;42945;51.718;5.324;2023-04-26T00:46:08;101753.38;;;0.50;100.00
57056;BME280;42945;51.718;5.324;2023-04-26T00:48:35;101767.31;;;0.38;100.00
57056;BME280;42945;51.718;5.324;2023-04-26T00:51:00;101759.47;;;0.38;100.00
57056;BME280;42945;51.718;5.324;2023-04-26T00:53:26;101782.94;;;0.46;100.00
57056;BME280;42945;51.718;5.324;2023-04-26T00:55:52;101793.38;;;0.52;100.00
57056;BME280;42945;51.718;5.324;2023-04-26T00:58:18;101679.47;;;-0.37;100.00
57056;BME280;42945;51.718;5.324;2023-04-26T01:00:43;101737.72;;;0.41;100.00
57056;BME280;42945;51.718;5.324;2023-04-26T01:03:09;101659.50;;;-0.30;100.00
57056;BME280;42945;51.718;5.324;2023-04-26T01:05:35;101809.91;;;0.38;100.00
57056;BME280;42945;51.718;5.324;2023-04-26T01:08:01;101798.59;;;0.43;100.00
57056;BME280;42945;51.718;5.324;2023-04-26T01:10:30;101805.56;;;0.28;100.00
57056;BME280;42945;51.718;5.324;2023-04-26T01:12:56;101696.88;;;-0.24;100.00
57056;BME280;42945;51.718;5.324;2023-04-26T01:15:22;101754.28;;;0.26;100.00
57056;BME280;42945;51.718;5.324;2023-04-26T01:17:48;101754.25;;;0.38;100.00
57056;BME280;42945;51.718;5.324;2023-04-26T01:20:13;101732.50;;;-0.12;100.00
57056;BME280;42945;51.718;5.324;2023-04-26T01:22:39;101641.25;;;-0.52;100.00
57056;BME280;42945;51.718;5.324;2023-04-26T01:25:04;101804.69;;;0.26;100.00
57056;BME280;42945;51.718;5.324;2023-04-26T01:27:33;101738.59;;;0.29;100.00
57056;BME280;42945;51.718;5.324;2023-04-26T01:29:59;101673.44;;;-0.33;100.00
57056;BME280;42945;51.718;5.324;2023-04-26T01:32:24;101790.78;;;0.23;100.00
57056;BME280;42945;51.718;5.324;2023-04-26T01:34:49;101748.19;;;0.22;100.00
57056;BME280;42945;51.718;5.324;2023-04-26T01:37:15;101804.72;;;0.28;100.00
57056;BME280;42945;51.718;5.324;2023-04-26T01:39:40;101761.22;;;0.21;100.00
57056;BME280;42945;51.718;5.324;2023-04-26T01:42:05;101663.84;;;-0.37;100.00
57056;BME280;42945;51.718;5.324;2023-04-26T01:44:31;101782.97;;;0.16;100.00
57056;BME280;42945;51.718;5.324;2023-04-26T01:46:56;101813.38;;;0.13;100.00
57056;BME280;42945;51.718;5.324;2023-04-26T01:49:22;101738.63;;;0.10;100.00
57056;BME280;42945;51.718;5.324;2023-04-26T01:51:47;101761.19;;;0.04;100.00
57056;BME280;42945;51.718;5.324;2023-04-26T01:54:12;101791.66;;;0.14;100.00
57056;BME280;42945;51.718;5.324;2023-04-26T01:56:38;101810.78;;;0.16;100.00
57056;BME280;42945;51.718;5.324;2023-04-26T01:59:03;101712.50;;;-0.44;100.00
57056;BME280;42945;51.718;5.324;2023-04-26T02:01:28;101766.44;;;0.21;100.00
57056;BME280;42945;51.718;5.324;2023-04-26T02:03:53;101778.59;;;-0.03;100.00
57056;BME280;42945;51.718;5.324;2023-04-26T02:06:19;101702.91;;;-0.49;100.00
57056;BME280;42945;51.718;5.324;2023-04-26T02:08:45;101772.53;;;0.09;100.00
57056;BME280;42945;51.718;5.324;2023-04-26T02:11:10;101802.09;;;0.20;100.00
57056;BME280;42945;51.718;5.324;2023-04-26T02:13:36;101742.03;;;-0.48;100.00
57056;BME280;42945;51.718;5.324;2023-04-26T02:16:02;101786.41;;;0.08;100.00
57056;BME280;42945;51.718;5.324;2023-04-26T02:18:27;101816.88;;;0.10;100.00
57056;BME280;42945;51.718;5.324;2023-04-26T02:20:53;101662.09;;;-0.60;100.00
57056;BME280;42945;51.718;5.324;2023-04-26T02:23:19;101669.03;;;-0.57;100.00
57056;BME280;42945;51.718;5.324;2023-04-26T02:25:45;101794.25;;;0.09;100.00
57056;BME280;42945;51.718;5.324;2023-04-26T02:28:11;101788.16;;;0.09;100.00
57056;BME280;42945;51.718;5.324;2023-04-26T02:30:37;101806.41;;;0.13;100.00
57056;BME280;42945;51.718;5.324;2023-04-26T02:33:02;101719.47;;;-0.16;100.00
57056;BME280;42945;51.718;5.324;2023-04-26T02:35:28;101782.09;;;0.01;100.00
57056;BME280;42945;51.718;5.324;2023-04-26T02:37:53;101760.34;;;0.05;100.00
57056;BME280;42945;51.718;5.324;2023-04-26T02:40:19;101790.75;;;-0.08;100.00
57056;BME280;42945;51.718;5.324;2023-04-26T02:42:45;101652.53;;;-0.64;100.00
57056;BME280;42945;51.718;5.324;2023-04-26T02:45:11;102027.56;;;1.36;100.00
57056;BME280;42945;51.718;5.324;2023-04-26T02:47:37;101669.03;;;-0.62;100.00
57056;BME280;42945;51.718;5.324;2023-04-26T02:50:04;101814.22;;;-0.13;100.00
57056;BME280;42945;51.718;5.324;2023-04-26T02:52:31;101733.31;;;-0.53;100.00
57056;BME280;42945;51.718;5.324;2023-04-26T02:54:57;101751.63;;;-0.24;100.00
57056;BME280;42945;51.718;5.324;2023-04-26T02:57:22;101795.94;;;-0.21;100.00
57056;BME280;42945;51.718;5.324;2023-04-26T02:59:47;101733.34;;;-0.36;100.00
57056;BME280;42945;51.718;5.324;2023-04-26T03:02:12;101795.03;;;-0.33;100.00
57056;BME280;42945;51.718;5.324;2023-04-26T03:04:38;101757.72;;;-0.23;100.00
57056;BME280;42945;51.718;5.324;2023-04-26T03:07:04;101761.16;;;-0.20;100.00
57056;BME280;42945;51.718;5.324;2023-04-26T03:09:29;101804.59;;;-0.29;100.00
57056;BME280;42945;51.718;5.324;2023-04-26T03:11:55;101783.78;;;-0.18;100.00
57056;BME280;42945;51.718;5.324;2023-04-26T03:14:20;101764.66;;;-0.21;100.00
57056;BME280;42945;51.718;5.324;2023-04-26T03:16:45;101689.88;;;-0.58;100.00
57056;BME280;42945;51.718;5.324;2023-04-26T03:19:12;101734.22;;;-0.38;100.00
57056;BME280;42945;51.718;5.324;2023-04-26T03:21:38;101803.75;;;-0.28;100.00
57056;BME280;42945;51.718;5.324;2023-04-26T03:24:05;101750.72;;;-0.32;100.00
57056;BME280;42945;51.718;5.324;2023-04-26T03:26:30;101789.81;;;-0.44;100.00
57056;BME280;42945;51.718;5.324;2023-04-26T03:28:55;101748.13;;;-0.32;100.00
57056;BME280;42945;51.718;5.324;2023-04-26T03:31:21;101794.16;;;-0.35;100.00
57056;BME280;42945;51.718;5.324;2023-04-26T03:33:47;101762.88;;;-0.43;100.00
57056;BME280;42945;51.718;5.324;2023-04-26T03:36:13;130785.25;;;167.75;100.00
57056;BME280;42945;51.718;5.324;2023-04-26T03:38:38;101706.38;;;-0.53;100.00
57056;BME280;42945;51.718;5.324;2023-04-26T03:41:03;101747.13;;;-0.77;100.00
57056;BME280;42945;51.718;5.324;2023-04-26T03:43:28;101746.19;;;-0.94;100.00
57056;BME280;42945;51.718;5.324;2023-04-26T03:45:54;101770.56;;;-0.80;100.00
57056;BME280;42945;51.718;5.324;2023-04-26T03:48:19;101739.19;;;-1.12;100.00
57056;BME280;42945;51.718;5.324;2023-04-26T03:50:45;101707.19;;;-0.81;100.00
57056;BME280;42945;51.718;5.324;2023-04-26T03:53:10;101653.19;;;-1.31;100.00
57056;BME280;42945;51.718;5.324;2023-04-26T03:55:36;101728.94;;;-0.66;100.00
57056;BME280;42945;51.718;5.324;2023-04-26T03:58:01;101792.38;;;-0.47;100.00
57056;BME280;42945;51.718;5.324;2023-04-26T04:00:27;101768.88;;;-0.64;100.00
57056;BME280;42945;51.718;5.324;2023-04-26T04:02:53;101791.50;;;-0.55;100.00
57056;BME280;42945;51.718;5.324;2023-04-26T04:05:18;101743.75;;;-0.50;100.00
57056;BME280;42945;51.718;5.324;2023-04-26T04:07:43;102088.50;;;1.18;100.00
57056;BME280;42945;51.718;5.324;2023-04-26T04:10:09;101758.44;;;-0.69;100.00
57056;BME280;42945;51.718;5.324;2023-04-26T04:12:35;101660.13;;;-1.31;100.00
57056;BME280;42945;51.718;5.324;2023-04-26T04:15:00;101596.75;;;-1.46;100.00
57056;BME280;42945;51.718;5.324;2023-04-26T04:17:26;101805.34;;;-0.73;100.00
57056;BME280;42945;51.718;5.324;2023-04-26T04:19:52;101712.44;;;-0.61;100.00
57056;BME280;42945;51.718;5.324;2023-04-26T04:22:17;101777.56;;;-0.65;100.00
57056;BME280;42945;51.718;5.324;2023-04-26T04:24:42;101730.69;;;-0.64;100.00
57056;BME280;42945;51.718;5.324;2023-04-26T04:27:08;101774.97;;;-0.62;100.00
57056;BME280;42945;51.718;5.324;2023-04-26T04:29:33;101768.94;;;-0.49;100.00
57056;BME280;42945;51.718;5.324;2023-04-26T04:31:59;101700.22;;;-0.88;100.00
57056;BME280;42945;51.718;5.324;2023-04-26T04:34:24;101758.53;;;-0.38;100.00
57056;BME280;42945;51.718;5.324;2023-04-26T04:36:50;101729.88;;;-0.50;100.00
57056;BME280;42945;51.718;5.324;2023-04-26T04:39:15;101701.13;;;-0.69;100.00
57056;BME280;42945;51.718;5.324;2023-04-26T04:41:42;101789.88;;;-0.23;100.00
57056;BME280;42945;51.718;5.324;2023-04-26T04:44:17;101875.19;;;0.45;100.00
57056;BME280;42945;51.718;5.324;2023-04-26T04:46:43;101751.63;;;-0.01;100.00
57056;BME280;42945;51.718;5.324;2023-04-26T04:49:10;101795.97;;;-0.01;100.00
57056;BME280;42945;51.718;5.324;2023-04-26T04:51:36;101859.41;;;1.29;100.00
57056;BME280;42945;51.718;5.324;2023-04-26T04:54:16;101797.69;;;0.85;100.00
57056;BME280;42945;51.718;5.324;2023-04-26T04:56:42;101782.97;;;0.56;100.00
57056;BME280;42945;51.718;5.324;2023-04-26T04:59:08;101779.78;;;1.93;100.00
57056;BME280;42945;51.718;5.324;2023-04-26T05:01:33;101774.78;;;1.61;100.00
57056;BME280;42945;51.718;5.324;2023-04-26T05:04:01;101776.38;;;1.82;100.00
57056;BME280;42945;51.718;5.324;2023-04-26T05:06:26;101770.28;;;1.82;100.00
57056;BME280;42945;51.718;5.324;2023-04-26T05:08:53;101811.88;;;2.20;100.00
57056;BME280;42945;51.718;5.324;2023-04-26T05:11:18;101700.19;;;0.83;100.00
57056;BME280;42945;51.718;5.324;2023-04-26T05:13:44;101796.75;;;1.17;100.00
57056;BME280;42945;51.718;5.324;2023-04-26T05:16:10;101780.22;;;1.09;100.00
57056;BME280;42945;51.718;5.324;2023-04-26T05:18:35;101782.00;;;0.97;100.00
57056;BME280;42945;51.718;5.324;2023-04-26T05:21:00;101758.47;;;1.05;100.00
57056;BME280;42945;51.718;5.324;2023-04-26T05:23:26;101760.25;;;0.92;100.00
57056;BME280;42945;51.718;5.324;2023-04-26T05:25:52;101774.16;;;0.99;100.00
57056;BME280;42945;51.718;5.324;2023-04-26T05:28:18;101677.69;;;0.51;100.00
57056;BME280;42945;51.718;5.324;2023-04-26T05:30:43;101733.19;;;1.15;100.00
57056;BME280;42945;51.718;5.324;2023-04-26T05:33:08;101745.34;;;1.19;100.00
57056;BME280;42945;51.718;5.324;2023-04-26T05:35:34;101814.09;;;1.35;100.00
57056;BME280;42945;51.718;5.324;2023-04-26T05:37:59;101763.47;;;1.54;100.00
57056;BME280;42945;51.718;5.324;2023-04-26T05:40:25;101780.06;;;1.49;100.00
57056;BME280;42945;51.718;5.324;2023-04-26T05:42:50;101832.31;;;1.58;100.00
57056;BME280;42945;51.718;5.324;2023-04-26T05:45:16;101820.13;;;1.54;100.00
57056;BME280;42945;51.718;5.324;2023-04-26T05:47:41;101770.38;;;1.71;100.00
57056;BME280;42945;51.718;5.324;2023-04-26T05:50:07;101783.44;;;1.71;100.00
57056;BME280;42945;51.718;5.324;2023-04-26T05:52:32;101725.75;;;1.88;100.00
57056;BME280;42945;51.718;5.324;2023-04-26T05:54:58;101753.63;;;1.92;100.00
57056;BME280;42945;51.718;5.324;2023-04-26T05:57:23;101831.06;;;2.21;100.00
57056;BME280;42945;51.718;5.324;2023-04-26T05:59:51;101677.88;;;1.81;100.00
57056;BME280;42945;51.718;5.324;2023-04-26T06:02:16;101720.34;;;2.09;100.00
57056;BME280;42945;51.718;5.324;2023-04-26T06:04:41;101817.31;;;2.99;100.00
57056;BME280;42945;51.718;5.324;2023-04-26T06:07:07;101902.00;;;3.82;100.00
57056;BME280;42945;51.718;5.324;2023-04-26T06:09:32;101717.16;;;2.71;100.00
57056;BME280;42945;51.718;5.324;2023-04-26T06:11:58;101862.84;;;3.66;100.00
57056;BME280;42945;51.718;5.324;2023-04-26T06:14:23;101788.94;;;3.99;100.00
57056;BME280;42945;51.718;5.324;2023-04-26T06:16:48;101822.84;;;4.11;100.00
57056;BME280;42945;51.718;5.324;2023-04-26T06:19:14;101808.25;;;4.49;100.00
57056;BME280;42945;51.718;5.324;2023-04-26T06:21:39;101760.88;;;4.53;100.00
57056;BME280;42945;51.718;5.324;2023-04-26T06:24:05;101796.53;;;4.68;100.00
57056;BME280;42945;51.718;5.324;2023-04-26T06:26:31;101763.31;;;4.66;100.00
57056;BME280;42945;51.718;5.324;2023-04-26T06:28:56;101704.53;;;4.23;100.00
57056;BME280;42945;51.718;5.324;2023-04-26T06:31:21;101716.47;;;4.40;100.00
57056;BME280;42945;51.718;5.324;2023-04-26T06:33:47;101754.22;;;4.84;100.00
57056;BME280;42945;51.718;5.324;2023-04-26T06:36:14;101783.22;;;4.79;100.00
57056;BME280;42945;51.718;5.324;2023-04-26T06:38:39;101809.63;;;4.73;100.00
57056;BME280;42945;51.718;5.324;2023-04-26T06:41:04;101729.63;;;4.86;100.00
57056;BME280;42945;51.718;5.324;2023-04-26T06:43:30;101718.19;;;4.90;100.00
57056;BME280;42945;51.718;5.324;2023-04-26T06:45:55;101769.75;;;4.96;100.00
57056;BME280;42945;51.718;5.324;2023-04-26T06:48:21;101630.72;;;4.39;100.00
57056;BME280;42945;51.718;5.324;2023-04-26T06:50:46;101741.47;;;5.09;100.00
57056;BME280;42945;51.718;5.324;2023-04-26T06:53:12;101716.38;;;4.92;100.00
57056;BME280;42945;51.718;5.324;2023-04-26T06:55:37;101769.78;;;5.38;100.00
57056;BME280;42945;51.718;5.324;2023-04-26T06:58:03;101731.63;;;5.19;100.00
57056;BME280;42945;51.718;5.324;2023-04-26T07:00:28;101741.94;;;5.28;100.00
57056;BME280;42945;51.718;5.324;2023-04-26T07:02:54;101718.31;;;5.25;100.00
57056;BME280;42945;51.718;5.324;2023-04-26T07:05:20;101688.53;;;5.24;100.00
57056;BME280;42945;51.718;5.324;2023-04-26T07:07:45;101750.88;;;5.61;100.00
57056;BME280;42945;51.718;5.324;2023-04-26T07:10:10;101748.97;;;5.27;100.00
57056;BME280;42945;51.718;5.324;2023-04-26T07:12:36;101624.56;;;4.83;100.00
57056;BME280;42945;51.718;5.324;2023-04-26T07:15:02;101613.78;;;4.96;100.00
57056;BME280;42945;51.718;5.324;2023-04-26T07:17:27;101677.94;;;4.87;100.00
57056;BME280;42945;51.718;5.324;2023-04-26T07:19:52;101707.97;;;5.58;100.00
57056;BME280;42945;51.718;5.324;2023-04-26T07:22:18;101602.78;;;5.17;100.00
57056;BME280;42945;51.718;5.324;2023-04-26T07:24:43;101712.84;;;5.75;100.00
57056;BME280;42945;51.718;5.324;2023-04-26T07:27:09;101719.47;;;6.28;11.16
57056;BME280;42945;51.718;5.324;2023-04-26T07:29:35;101732.47;;;5.99;100.00
57056;BME280;42945;51.718;5.324;2023-04-26T07:32:01;101759.38;;;6.11;100.00
57056;BME280;42945;51.718;5.324;2023-04-26T07:34:26;101710.38;;;6.40;100.00
57056;BME280;42945;51.718;5.324;2023-04-26T07:36:51;101698.22;;;6.00;100.00
57056;BME280;42945;51.718;5.324;2023-04-26T07:39:17;101703.91;;;6.18;100.00
57056;BME280;42945;51.718;5.324;2023-04-26T07:41:42;101702.50;;;6.04;100.00
57056;BME280;42945;51.718;5.324;2023-04-26T07:44:09;101694.50;;;6.09;100.00
57056;BME280;42945;51.718;5.324;2023-04-26T07:46:35;101713.00;;;6.40;100.00
57056;BME280;42945;51.718;5.324;2023-04-26T07:49:00;101737.81;;;6.31;100.00
57056;BME280;42945;51.718;5.324;2023-04-26T07:51:26;101723.50;;;6.07;100.00
57056;BME280;42945;51.718;5.324;2023-04-26T07:53:51;101725.13;;;6.13;100.00
57056;BME280;42945;51.718;5.324;2023-04-26T07:56:17;101727.16;;;6.36;100.00
57056;BME280;42945;51.718;5.324;2023-04-26T07:58:42;101723.56;;;6.40;100.00
57056;BME280;42945;51.718;5.324;2023-04-26T08:01:08;101760.22;;;6.49;100.00
57056;BME280;42945;51.718;5.324;2023-04-26T08:03:33;101648.28;;;5.97;100.00
57056;BME280;42945;51.718;5.324;2023-04-26T08:05:59;101719.75;;;6.50;100.00
57056;BME280;42945;51.718;5.324;2023-04-26T08:08:25;101636.44;;;6.14;100.00
57056;BME280;42945;51.718;5.324;2023-04-26T08:10:51;101707.59;;;7.09;100.00
57056;BME280;42945;51.718;5.324;2023-04-26T08:13:16;101712.59;;;7.18;100.00
57056;BME280;42945;51.718;5.324;2023-04-26T08:15:41;101718.34;;;7.61;100.00
57056;BME280;42945;51.718;5.324;2023-04-26T08:18:07;101743.69;;;7.66;100.00
57056;BME280;42945;51.718;5.324;2023-04-26T08:20:32;101656.34;;;7.18;100.00
57056;BME280;42945;51.718;5.324;2023-04-26T08:22:58;101733.88;;;7.42;100.00
57056;BME280;42945;51.718;5.324;2023-04-26T08:25:24;101736.06;;;7.57;100.00
57056;BME280;42945;51.718;5.324;2023-04-26T08:27:50;101752.91;;;7.53;100.00
57056;BME280;42945;51.718;5.324;2023-04-26T08:30:16;101781.44;;;7.09;100.00
57056;BME280;42945;51.718;5.324;2023-04-26T08:32:41;101601.50;;;6.40;100.00
57056;BME280;42945;51.718;5.324;2023-04-26T08:35:07;101728.69;;;7.09;100.00
57056;BME280;42945;51.718;5.324;2023-04-26T08:37:33;101588.06;;;6.16;100.00
57056;BME280;42945;51.718;5.324;2023-04-26T08:39:59;101787.88;;;7.30;100.00
57056;BME280;42945;51.718;5.324;2023-04-26T08:42:26;101648.38;;;6.89;100.00
57056;BME280;42945;51.718;5.324;2023-04-26T08:44:52;101740.84;;;7.73;100.00
57056;BME280;42945;51.718;5.324;2023-04-26T08:47:24;101733.06;;;7.40;100.00
57056;BME280;42945;51.718;5.324;2023-04-26T08:49:53;101698.19;;;8.38;100.00
57056;BME280;42945;51.718;5.324;2023-04-26T08:52:26;101643.13;;;7.46;100.00
57056;BME280;42945;51.718;5.324;2023-04-26T08:54:53;101685.22;;;7.79;100.00
57056;BME280;42945;51.718;5.324;2023-04-26T08:57:19;101708.97;;;7.79;100.00
57056;BME280;42945;51.718;5.324;2023-04-26T08:59:45;101728.78;;;7.92;100.00
57056;BME280;42945;51.718;5.324;2023-04-26T09:02:17;101621.44;;;7.91;100.00
57056;BME280;42945;51.718;5.324;2023-04-26T09:04:44;101705.44;;;7.80;100.00
57056;BME280;42945;51.718;5.324;2023-04-26T09:07:17;101595.03;;;6.80;100.00
57056;BME280;42945;51.718;5.324;2023-04-26T09:09:47;101713.16;;;7.29;100.00
57056;BME280;42945;51.718;5.324;2023-04-26T09:12:13;101720.03;;;7.63;100.00
57056;BME280;42945;51.718;5.324;2023-04-26T09:14:40;101695.56;;;8.12;100.00
57056;BME280;42945;51.718;5.324;2023-04-26T09:17:26;101732.78;;;8.32;100.00
57056;BME280;42945;51.718;5.324;2023-04-26T09:19:52;101574.72;;;7.66;100.00
57056;BME280;42945;51.718;5.324;2023-04-26T09:22:47;101705.78;;;7.96;100.00
57056;BME280;42945;51.718;5.324;2023-04-26T09:25:15;101686.94;;;8.58;100.00
57056;BME280;42945;51.718;5.324;2023-04-26T09:27:42;101625.53;;;7.73;100.00
57056;BME280;42945;51.718;5.324;2023-04-26T09:37:56;101617.97;;;7.36;100.00
57056;BME280;42945;51.718;5.324;2023-04-26T09:40:24;101721.22;;;7.53;100.00
57056;BME280;42945;51.718;5.324;2023-04-26T09:43:03;101626.16;;;6.98;100.00
57056;BME280;42945;51.718;5.324;2023-04-26T09:45:41;101740.44;;;8.13;100.00
57056;BME280;42945;51.718;5.324;2023-04-26T09:50:37;101741.94;;;7.65;100.00
57056;BME280;42945;51.718;5.324;2023-04-26T09:53:02;101708.38;;;7.97;100.00
57056;BME280;42945;51.718;5.324;2023-04-26T09:55:29;101727.75;;;7.69;100.00
57056;BME280;42945;51.718;5.324;2023-04-26T09:57:56;101643.81;;;7.24;100.00
57056;BME280;42945;51.718;5.324;2023-04-26T10:00:23;101603.91;;;7.07;100.00
57056;BME280;42945;51.718;5.324;2023-04-26T10:02:53;101725.50;;;7.85;100.00
57056;BME280;42945;51.718;5.324;2023-04-26T10:05:19;101618.50;;;6.89;100.00
57056;BME280;42945;51.718;5.324;2023-04-26T10:07:46;101723.88;;;7.81;100.00
57056;BME280;42945;51.718;5.324;2023-04-26T10:10:12;101684.31;;;8.32;100.00
57056;BME280;42945;51.718;5.324;2023-04-26T10:12:41;101669.31;;;8.07;100.00
57056;BME280;42945;51.718;5.324;2023-04-26T10:15:08;101699.56;;;8.23;100.00
57056;BME280;42945;51.718;5.324;2023-04-26T10:17:35;101765.38;;;8.31;100.00
57056;BME280;42945;51.718;5.324;2023-04-26T10:20:01;101713.97;;;8.15;100.00
57056;BME280;42945;51.718;5.324;2023-04-26T10:22:32;101772.00;;;8.18;100.00
57056;BME280;42945;51.718;5.324;2023-04-26T10:24:58;101570.81;;;8.03;100.00
57056;BME280;42945;51.718;5.324;2023-04-26T10:27:48;101682.72;;;8.53;100.00
57056;BME280;42945;51.718;5.324;2023-04-26T10:30:19;101670.25;;;9.29;100.00
57056;BME280;42945;51.718;5.324;2023-04-26T10:35:20;101576.03;;;7.80;90.38
57056;BME280;42945;51.718;5.324;2023-04-26T10:45:35;101631.13;;;8.42;88.75
57056;BME280;42945;51.718;5.324;2023-04-26T10:59:08;101646.06;;;9.14;87.12
57056;BME280;42945;51.718;5.324;2023-04-26T11:01:34;101673.75;;;9.29;78.64
57056;BME280;42945;51.718;5.324;2023-04-26T11:04:05;101676.06;;;8.91;79.13
57056;BME280;42945;51.718;5.324;2023-04-26T11:06:48;101709.78;;;8.34;81.44
57056;BME280;42945;51.718;5.324;2023-04-26T11:09:40;101705.38;;;9.32;87.39
57056;BME280;42945;51.718;5.324;2023-04-26T11:12:12;101680.38;;;8.94;89.77
57056;BME280;42945;51.718;5.324;2023-04-26T11:14:40;101647.47;;;8.77;87.34
57056;BME280;42945;51.718;5.324;2023-04-26T11:17:07;101672.09;;;8.54;92.04
57056;BME280;42945;51.718;5.324;2023-04-26T11:19:33;101656.53;;;8.70;93.73
57056;BME280;42945;51.718;5.324;2023-04-26T11:21:59;101685.84;;;9.58;97.38
57056;BME280;42945;51.718;5.324;2023-04-26T11:24:29;101650.13;;;9.01;96.71
57056;BME280;42945;51.718;5.324;2023-04-26T11:26:55;101540.91;;;9.19;97.95
57056;BME280;42945;51.718;5.324;2023-04-26T11:29:20;101685.34;;;9.49;88.96
57056;BME280;42945;51.718;5.324;2023-04-26T11:31:53;101667.53;;;9.52;84.33
57056;BME280;42945;51.718;5.324;2023-04-26T11:34:20;101630.59;;;9.27;86.15
57056;BME280;42945;51.718;5.324;2023-04-26T11:36:47;101447.91;;;8.40;88.57
57056;BME280;42945;51.718;5.324;2023-04-26T11:39:12;101672.88;;;9.05;89.16
57056;BME280;42945;51.718;5.324;2023-04-26T11:41:37;101638.84;;;9.41;89.61
57056;BME280;42945;51.718;5.324;2023-04-26T11:44:03;101576.13;;;8.52;90.34
57056;BME280;42945;51.718;5.324;2023-04-26T11:46:28;101652.31;;;8.39;92.79
57056;BME280;42945;51.718;5.324;2023-04-26T11:48:54;101684.28;;;9.31;89.09
57056;BME280;42945;51.718;5.324;2023-04-26T11:51:20;101669.94;;;9.58;86.91
57056;BME280;42945;51.718;5.324;2023-04-26T11:53:46;101673.78;;;9.05;87.46
57056;BME280;42945;51.718;5.324;2023-04-26T11:56:17;101600.28;;;9.56;87.91
57056;BME280;42945;51.718;5.324;2023-04-26T11:58:52;101546.59;;;8.39;88.81
57056;BME280;42945;51.718;5.324;2023-04-26T12:03:50;101638.34;;;9.96;86.09
57056;BME280;42945;51.718;5.324;2023-04-26T12:06:17;101708.75;;;9.81;81.03
57056;BME280;42945;51.718;5.324;2023-04-26T12:08:49;101697.81;;;9.67;78.58
57056;BME280;42945;51.718;5.324;2023-04-26T12:11:15;101721.72;;;8.96;80.00
57056;BME280;42945;51.718;5.324;2023-04-26T12:13:41;101548.22;;;8.91;83.28
57056;BME280;42945;51.718;5.324;2023-04-26T12:16:07;101595.34;;;9.03;81.85
57056;BME280;42945;51.718;5.324;2023-04-26T12:18:34;101575.13;;;9.24;86.18
57056;BME280;42945;51.718;5.324;2023-04-26T12:21:00;101660.16;;;9.60;86.50
57056;BME280;42945;51.718;5.324;2023-04-26T12:23:26;101633.88;;;9.56;91.02
57056;BME280;42945;51.718;5.324;2023-04-26T12:25:56;101684.03;;;9.37;88.90
57056;BME280;42945;51.718;5.324;2023-04-26T12:28:24;101678.34;;;9.90;87.83
57056;BME280;42945;51.718;5.324;2023-04-26T12:30:50;101716.56;;;10.27;83.00
57056;BME280;42945;51.718;5.324;2023-04-26T12:33:15;101627.69;;;9.77;87.57
57056;BME280;42945;51.718;5.324;2023-04-26T12:35:43;101696.81;;;9.25;85.10
57056;BME280;42945;51.718;5.324;2023-04-26T12:38:09;101598.56;;;9.55;83.74
57056;BME280;42945;51.718;5.324;2023-04-26T12:40:36;101581.94;;;9.30;81.57
57056;BME280;42945;51.718;5.324;2023-04-26T12:43:01;101722.00;;;9.81;80.87
57056;BME280;42945;51.718;5.324;2023-04-26T12:45:26;101670.53;;;10.30;83.50
57056;BME280;42945;51.718;5.324;2023-04-26T12:47:53;101593.97;;;10.42;79.80
57056;BME280;42945;51.718;5.324;2023-04-26T12:50:18;101690.69;;;10.12;74.64
57056;BME280;42945;51.718;5.324;2023-04-26T12:52:44;101678.19;;;9.95;81.38
57056;BME280;42945;51.718;5.324;2023-04-26T12:55:10;101687.34;;;10.08;74.82
57056;BME280;42945;51.718;5.324;2023-04-26T12:57:39;101639.03;;;10.42;73.52
57056;BME280;42945;51.718;5.324;2023-04-26T13:00:06;101715.22;;;10.80;70.20
57056;BME280;42945;51.718;5.324;2023-04-26T13:02:32;101722.00;;;10.67;70.25
57056;BME280;42945;51.718;5.324;2023-04-26T13:04:59;101633.94;;;10.38;76.23
57056;BME280;42945;51.718;5.324;2023-04-26T13:07:26;101547.59;;;10.32;72.31
57056;BME280;42945;51.718;5.324;2023-04-26T13:09:51;101677.97;;;10.42;73.80
57056;BME280;42945;51.718;5.324;2023-04-26T13:12:16;101691.97;;;10.03;75.92
57056;BME280;42945;51.718;5.324;2023-04-26T13:14:42;101587.06;;;9.77;79.09
57056;BME280;42945;51.718;5.324;2023-04-26T13:17:07;101708.78;;;10.44;83.79
57056;BME280;42945;51.718;5.324;2023-04-26T13:19:34;101682.94;;;10.50;77.85
57056;BME280;42945;51.718;5.324;2023-04-26T13:22:01;101651.22;;;10.47;62.15